sensor_id;sensor_type;location;lat;lon;timestamp;pressure;altitude;pressure_sealevel;temperature;humidity
21877;BME280;11103;43.788;23.710;2022-12-18T00:01:31;147551.78;;;4.68;100.00
21877;BME280;11103;43.788;23.710;2022-12-18T00:03:58;147531.41;;;4.60;100.00
21877;BME280;11103;43.788;23.710;2022-12-18T00:06:26;147569.63;;;4.75;100.00
21877;BME280;11103;43.788;23.710;2022-12-18T00:08:52;147555.63;;;4.69;100.00
21877;BME280;11103;43.788;23.710;2022-12-18T00:11:20;147531.41;;;4.60;100.00
21877;BME280;11103;43.788;23.710;2022-12-18T00:13:47;147545.41;;;4.65;100.00
21877;BME280;11103;43.788;23.710;2022-12-18T00:16:15;147532.69;;;4.60;100.00
21877;BME280;11103;43.788;23.710;2022-12-18T00:18:42;147540.34;;;4.63;100.00
21877;BME280;11103;43.788;23.710;2022-12-18T00:21:09;147519.97;;;4.55;100.00
21877;BME280;11103;43.788;23.710;2022-12-18T00:23:36;147498.31;;;4.47;100.00
21877;BME280;11103;43.788;23.710;2022-12-18T00:26:04;147504.69;;;4.49;100.00
21877;BME280;11103;43.788;23.710;2022-12-18T00:28:30;147484.31;;;4.41;100.00
21877;BME280;11103;43.788;23.710;2022-12-18T00:31:07;147483.03;;;4.41;100.00
21877;BME280;11103;43.788;23.710;2022-12-18T00:33:33;147507.25;;;4.50;100.00
21877;BME280;11103;43.788;23.710;2022-12-18T00:38:28;147461.41;;;4.32;100.00
21877;BME280;11103;43.788;23.710;2022-12-18T00:40:54;147435.97;;;4.22;100.00
21877;BME280;11103;43.788;23.710;2022-12-18T00:43:19;147470.31;;;4.36;100.00
21877;BME280;11103;43.788;23.710;2022-12-18T00:45:45;147430.88;;;4.20;100.00
21877;BME280;11103;43.788;23.710;2022-12-18T00:48:10;147457.59;;;4.31;100.00
21877;BME280;11103;43.788;23.710;2022-12-18T00:50:37;147451.25;;;4.28;100.00
21877;BME280;11103;43.788;23.710;2022-12-18T00:53:03;147453.81;;;4.29;100.00
21877;BME280;11103;43.788;23.710;2022-12-18T00:55:29;147435.97;;;4.22;100.00
21877;BME280;11103;43.788;23.710;2022-12-18T00:57:54;147255.38;;;3.50;100.00
21877;BME280;11103;43.788;23.710;2022-12-18T01:00:19;147439.81;;;4.24;100.00
21877;BME280;11103;43.788;23.710;2022-12-18T01:02:45;147429.59;;;4.19;100.00
21877;BME280;11103;43.788;23.710;2022-12-18T01:05:12;147437.25;;;4.22;100.00
21877;BME280;11103;43.788;23.710;2022-12-18T01:07:38;147414.31;;;4.13;100.00
21877;BME280;11103;43.788;23.710;2022-12-18T01:10:05;147418.16;;;4.15;100.00
21877;BME280;11103;43.788;23.710;2022-12-18T01:12:31;147419.44;;;4.15;100.00
21877;BME280;11103;43.788;23.710;2022-12-18T01:14:57;147404.16;;;4.09;100.00
21877;BME280;11103;43.788;23.710;2022-12-18T01:17:22;147381.25;;;4.00;100.00
21877;BME280;11103;43.788;23.710;2022-12-18T01:19:48;147395.25;;;4.06;100.00
21877;BME280;11103;43.788;23.710;2022-12-18T01:22:13;147400.31;;;4.08;100.00
21877;BME280;11103;43.788;23.710;2022-12-18T01:24:39;147397.81;;;4.07;100.00
21877;BME280;11103;43.788;23.710;2022-12-18T01:27:04;147400.31;;;4.08;100.00
21877;BME280;11103;43.788;23.710;2022-12-18T01:29:31;147385.09;;;4.02;100.00
21877;BME280;11103;43.788;23.710;2022-12-18T01:31:56;147382.53;;;4.01;100.00
21877;BME280;11103;43.788;23.710;2022-12-18T01:34:23;147386.31;;;4.02;100.00
21877;BME280;11103;43.788;23.710;2022-12-18T01:36:49;147382.53;;;4.01;100.00
21877;BME280;11103;43.788;23.710;2022-12-18T01:39:17;147327.84;;;3.79;100.00
21877;BME280;11103;43.788;23.710;2022-12-18T01:41:44;147332.91;;;3.81;100.00
21877;BME280;11103;43.788;23.710;2022-12-18T01:49:50;147359.63;;;3.92;100.00
21877;BME280;11103;43.788;23.710;2022-12-18T01:52:18;147299.84;;;3.68;100.00
21877;BME280;11103;43.788;23.710;2022-12-18T01:54:44;147243.88;;;3.46;100.00
21877;BME280;11103;43.788;23.710;2022-12-18T01:57:11;147331.63;;;3.81;100.00
21877;BME280;11103;43.788;23.710;2022-12-18T01:59:36;147346.91;;;3.87;100.00
21877;BME280;11103;43.788;23.710;2022-12-18T02:02:03;147351.97;;;3.89;100.00
21877;BME280;11103;43.788;23.710;2022-12-18T02:04:29;147307.47;;;3.71;100.00
21877;BME280;11103;43.788;23.710;2022-12-18T02:07:00;147274.44;;;3.58;100.00
21877;BME280;11103;43.788;23.710;2022-12-18T02:09:33;147321.47;;;3.77;100.00
21877;BME280;11103;43.788;23.710;2022-12-18T02:12:22;147349.47;;;3.88;100.00
21877;BME280;11103;43.788;23.710;2022-12-18T02:15:07;147351.97;;;3.89;100.00
21877;BME280;11103;43.788;23.710;2022-12-18T02:26:09;147378.72;;;3.99;100.00
21877;BME280;11103;43.788;23.710;2022-12-18T02:28:46;147368.53;;;3.95;100.00
21877;BME280;11103;43.788;23.710;2022-12-18T02:31:17;147365.97;;;3.94;100.00
21877;BME280;11103;43.788;23.710;2022-12-18T02:33:49;147363.47;;;3.93;100.00
21877;BME280;11103;43.788;23.710;2022-12-18T02:36:16;147313.84;;;3.74;100.00
21877;BME280;11103;43.788;23.710;2022-12-18T02:38:43;147285.84;;;3.63;100.00
21877;BME280;11103;43.788;23.710;2022-12-18T02:41:10;147245.16;;;3.46;100.00
21877;BME280;11103;43.788;23.710;2022-12-18T02:43:36;147365.97;;;3.94;100.00
21877;BME280;11103;43.788;23.710;2022-12-18T02:46:31;147374.88;;;3.98;100.00
21877;BME280;11103;43.788;23.710;2022-12-18T02:49:06;147346.91;;;3.87;100.00
21877;BME280;11103;43.788;23.710;2022-12-18T02:52:34;147315.13;;;3.74;100.00
21877;BME280;11103;43.788;23.710;2022-12-18T02:57:35;147387.59;;;4.03;100.00
21877;BME280;11103;43.788;23.710;2022-12-18T03:00:24;147376.16;;;3.98;100.00
21877;BME280;11103;43.788;23.710;2022-12-18T03:03:06;147391.44;;;4.04;100.00
21877;BME280;11103;43.788;23.710;2022-12-18T03:05:43;147390.16;;;4.04;100.00
21877;BME280;11103;43.788;23.710;2022-12-18T03:08:19;147404.16;;;4.09;100.00
21877;BME280;11103;43.788;23.710;2022-12-18T03:10:56;147407.97;;;4.11;100.00
21877;BME280;11103;43.788;23.710;2022-12-18T03:13:30;147385.09;;;4.02;100.00
21877;BME280;11103;43.788;23.710;2022-12-18T03:15:58;147395.25;;;4.06;100.00
21877;BME280;11103;43.788;23.710;2022-12-18T03:18:25;147423.25;;;4.17;100.00
21877;BME280;11103;43.788;23.710;2022-12-18T03:20:54;147410.53;;;4.12;100.00
21877;BME280;11103;43.788;23.710;2022-12-18T03:23:27;147392.72;;;4.05;100.00
21877;BME280;11103;43.788;23.710;2022-12-18T03:25:58;147410.53;;;4.12;100.00
21877;BME280;11103;43.788;23.710;2022-12-18T03:28:30;147438.53;;;4.23;100.00
21877;BME280;11103;43.788;23.710;2022-12-18T03:30:59;147434.69;;;4.21;100.00
21877;BME280;11103;43.788;23.710;2022-12-18T03:33:30;147446.16;;;4.26;100.00
21877;BME280;11103;43.788;23.710;2022-12-18T03:35:58;147449.97;;;4.28;100.00
21877;BME280;11103;43.788;23.710;2022-12-18T03:38:24;147463.97;;;4.33;100.00
21877;BME280;11103;43.788;23.710;2022-12-18T03:41:07;147465.25;;;4.34;100.00
21877;BME280;11103;43.788;23.710;2022-12-18T03:43:52;147469.03;;;4.35;100.00
21877;BME280;11103;43.788;23.710;2022-12-18T03:48:56;147477.97;;;4.39;100.00
21877;BME280;11103;43.788;23.710;2022-12-18T03:51:37;147457.59;;;4.31;100.00
21877;BME280;11103;43.788;23.710;2022-12-18T03:54:05;147437.25;;;4.22;100.00
21877;BME280;11103;43.788;23.710;2022-12-18T03:56:42;147490.69;;;4.44;100.00
21877;BME280;11103;43.788;23.710;2022-12-18T03:59:11;147463.97;;;4.33;100.00
21877;BME280;11103;43.788;23.710;2022-12-18T04:01:41;147469.03;;;4.35;100.00
21877;BME280;11103;43.788;23.710;2022-12-18T04:04:09;147443.59;;;4.25;100.00
21877;BME280;11103;43.788;23.710;2022-12-18T04:06:36;147447.44;;;4.27;100.00
21877;BME280;11103;43.788;23.710;2022-12-18T04:09:03;147466.53;;;4.34;100.00
21877;BME280;11103;43.788;23.710;2022-12-18T04:11:29;147479.25;;;4.39;100.00
21877;BME280;11103;43.788;23.710;2022-12-18T04:13:56;147453.81;;;4.29;100.00
21877;BME280;11103;43.788;23.710;2022-12-18T04:16:23;147483.03;;;4.41;100.00
21877;BME280;11103;43.788;23.710;2022-12-18T04:18:49;147466.53;;;4.34;100.00
21877;BME280;11103;43.788;23.710;2022-12-18T04:21:14;147474.16;;;4.37;100.00
21877;BME280;11103;43.788;23.710;2022-12-18T04:23:40;147486.88;;;4.42;100.00
21877;BME280;11103;43.788;23.710;2022-12-18T04:26:05;147462.69;;;4.33;100.00
21877;BME280;11103;43.788;23.710;2022-12-18T04:28:30;147466.53;;;4.34;100.00
21877;BME280;11103;43.788;23.710;2022-12-18T04:30:56;147474.16;;;4.37;100.00
21877;BME280;11103;43.788;23.710;2022-12-18T04:33:21;147472.88;;;4.37;100.00
21877;BME280;11103;43.788;23.710;2022-12-18T04:35:47;147455.03;;;4.30;100.00
21877;BME280;11103;43.788;23.710;2022-12-18T04:38:12;147483.03;;;4.41;100.00
21877;BME280;11103;43.788;23.710;2022-12-18T04:40:38;147461.41;;;4.32;100.00
21877;BME280;11103;43.788;23.710;2022-12-18T04:43:03;147451.25;;;4.28;100.00
21877;BME280;11103;43.788;23.710;2022-12-18T04:45:31;147453.81;;;4.29;100.00
21877;BME280;11103;43.788;23.710;2022-12-18T04:48:00;147438.53;;;4.23;100.00
21877;BME280;11103;43.788;23.710;2022-12-18T04:50:26;147430.88;;;4.20;100.00
21877;BME280;11103;43.788;23.710;2022-12-18T04:52:51;147423.25;;;4.17;100.00
21877;BME280;11103;43.788;23.710;2022-12-18T04:55:17;147425.81;;;4.18;100.00
21877;BME280;11103;43.788;23.710;2022-12-18T04:57:42;147413.09;;;4.13;100.00
21877;BME280;11103;43.788;23.710;2022-12-18T05:00:10;147410.53;;;4.12;100.00
21877;BME280;11103;43.788;23.710;2022-12-18T05:02:35;147382.53;;;4.01;100.00
21877;BME280;11103;43.788;23.710;2022-12-18T05:05:01;147413.09;;;4.13;100.00
21877;BME280;11103;43.788;23.710;2022-12-18T05:07:27;147428.31;;;4.19;100.00
21877;BME280;11103;43.788;23.710;2022-12-18T05:09:52;147418.16;;;4.15;100.00
21877;BME280;11103;43.788;23.710;2022-12-18T05:12:17;147390.16;;;4.04;100.00
21877;BME280;11103;43.788;23.710;2022-12-18T05:14:43;147405.44;;;4.10;100.00
21877;BME280;11103;43.788;23.710;2022-12-18T05:17:08;147393.97;;;4.05;100.00
21877;BME280;11103;43.788;23.710;2022-12-18T05:19:34;147402.88;;;4.09;100.00
21877;BME280;11103;43.788;23.710;2022-12-18T05:22:00;147416.88;;;4.14;100.00
21877;BME280;11103;43.788;23.710;2022-12-18T05:24:26;147397.81;;;4.07;100.00
21877;BME280;11103;43.788;23.710;2022-12-18T05:26:51;147414.31;;;4.13;100.00
21877;BME280;11103;43.788;23.710;2022-12-18T05:29:17;147400.31;;;4.08;100.00
21877;BME280;11103;43.788;23.710;2022-12-18T05:31:42;147397.81;;;4.07;100.00
21877;BME280;11103;43.788;23.710;2022-12-18T05:34:08;147400.31;;;4.08;100.00
21877;BME280;11103;43.788;23.710;2022-12-18T05:36:33;147392.72;;;4.05;100.00
21877;BME280;11103;43.788;23.710;2022-12-18T05:38:59;147392.72;;;4.05;100.00
21877;BME280;11103;43.788;23.710;2022-12-18T05:41:27;147354.53;;;3.90;100.00
21877;BME280;11103;43.788;23.710;2022-12-18T05:43:52;147383.81;;;4.01;100.00
21877;BME280;11103;43.788;23.710;2022-12-18T05:46:17;147364.75;;;3.94;100.00
21877;BME280;11103;43.788;23.710;2022-12-18T05:48:44;147369.81;;;3.96;100.00
21877;BME280;11103;43.788;23.710;2022-12-18T05:51:15;147379.97;;;4.00;100.00
21877;BME280;11103;43.788;23.710;2022-12-18T05:53:41;147365.97;;;3.94;100.00
21877;BME280;11103;43.788;23.710;2022-12-18T05:56:09;147346.91;;;3.87;100.00
21877;BME280;11103;43.788;23.710;2022-12-18T05:58:35;147358.38;;;3.91;100.00
21877;BME280;11103;43.788;23.710;2022-12-18T06:01:15;147367.25;;;3.95;100.00
21877;BME280;11103;43.788;23.710;2022-12-18T06:03:42;147385.09;;;4.02;100.00
21877;BME280;11103;43.788;23.710;2022-12-18T06:06:21;147367.25;;;3.95;100.00
21877;BME280;11103;43.788;23.710;2022-12-18T06:08:47;147392.72;;;4.05;100.00
21877;BME280;11103;43.788;23.710;2022-12-18T06:11:13;147392.72;;;4.05;100.00
21877;BME280;11103;43.788;23.710;2022-12-18T06:13:41;147350.75;;;3.88;100.00
21877;BME280;11103;43.788;23.710;2022-12-18T06:16:06;147415.59;;;4.14;100.00
21877;BME280;11103;43.788;23.710;2022-12-18T06:18:33;147400.31;;;4.08;100.00
21877;BME280;11103;43.788;23.710;2022-12-18T06:20:59;147428.31;;;4.19;100.00
21877;BME280;11103;43.788;23.710;2022-12-18T06:23:25;147441.03;;;4.24;100.00
21877;BME280;11103;43.788;23.710;2022-12-18T06:25:51;147435.97;;;4.22;100.00
21877;BME280;11103;43.788;23.710;2022-12-18T06:28:17;147434.69;;;4.21;100.00
21877;BME280;11103;43.788;23.710;2022-12-18T06:30:47;147463.97;;;4.33;100.00
21877;BME280;11103;43.788;23.710;2022-12-18T06:33:14;147469.03;;;4.35;100.00
21877;BME280;11103;43.788;23.710;2022-12-18T06:35:39;147453.81;;;4.29;100.00
21877;BME280;11103;43.788;23.710;2022-12-18T06:38:05;147443.59;;;4.25;100.00
21877;BME280;11103;43.788;23.710;2022-12-18T06:40:30;147481.81;;;4.40;100.00
21877;BME280;11103;43.788;23.710;2022-12-18T06:42:57;147503.41;;;4.49;100.00
21877;BME280;11103;43.788;23.710;2022-12-18T06:45:22;147505.97;;;4.50;100.00
21877;BME280;11103;43.788;23.710;2022-12-18T06:47:48;147545.41;;;4.65;100.00
21877;BME280;11103;43.788;23.710;2022-12-18T06:50:13;147582.34;;;4.80;100.00
21877;BME280;11103;43.788;23.710;2022-12-18T06:52:39;147579.78;;;4.79;100.00
21877;BME280;11103;43.788;23.710;2022-12-18T06:55:06;147584.88;;;4.81;100.00
21877;BME280;11103;43.788;23.710;2022-12-18T06:57:35;147632.03;;;5.00;100.00
21877;BME280;11103;43.788;23.710;2022-12-18T07:00:01;147666.41;;;5.13;100.00
21877;BME280;11103;43.788;23.710;2022-12-18T07:02:26;147689.28;;;5.22;100.00
21877;BME280;11103;43.788;23.710;2022-12-18T07:04:51;147693.16;;;5.24;100.00
21877;BME280;11103;43.788;23.710;2022-12-18T07:07:19;147759.38;;;5.50;100.00
21877;BME280;11103;43.788;23.710;2022-12-18T07:09:44;147772.09;;;5.55;100.00
21877;BME280;11103;43.788;23.710;2022-12-18T07:12:09;147816.72;;;5.73;100.00
21877;BME280;11103;43.788;23.710;2022-12-18T07:14:35;147830.75;;;5.78;100.00
21877;BME280;11103;43.788;23.710;2022-12-18T07:17:00;147828.19;;;5.77;100.00
21877;BME280;11103;43.788;23.710;2022-12-18T07:19:26;147854.97;;;5.88;100.00
21877;BME280;11103;43.788;23.710;2022-12-18T07:21:51;147875.38;;;5.96;100.00
21877;BME280;11103;43.788;23.710;2022-12-18T07:24:17;147874.09;;;5.95;100.00
21877;BME280;11103;43.788;23.710;2022-12-18T07:26:42;147921.28;;;6.14;100.00
21877;BME280;11103;43.788;23.710;2022-12-18T07:29:07;147979.91;;;6.37;100.00
21877;BME280;11103;43.788;23.710;2022-12-18T07:31:33;148010.53;;;6.49;100.00
21877;BME280;11103;43.788;23.710;2022-12-18T07:33:58;147985.00;;;6.39;100.00
21877;BME280;11103;43.788;23.710;2022-12-18T07:36:24;148038.56;;;6.60;100.00
21877;BME280;11103;43.788;23.710;2022-12-18T07:38:49;148055.16;;;6.67;100.00
21877;BME280;11103;43.788;23.710;2022-12-18T07:41:15;148110.00;;;6.89;100.00
21877;BME280;11103;43.788;23.710;2022-12-18T07:43:41;148159.75;;;7.08;100.00
21877;BME280;11103;43.788;23.710;2022-12-18T07:46:08;148168.72;;;7.12;100.00
21877;BME280;11103;43.788;23.710;2022-12-18T07:48:35;148185.25;;;7.18;100.00
21877;BME280;11103;43.788;23.710;2022-12-18T07:51:02;148213.34;;;7.30;100.00
21877;BME280;11103;43.788;23.710;2022-12-18T07:53:29;148167.41;;;7.11;100.00
21877;BME280;11103;43.788;23.710;2022-12-18T07:56:02;148209.53;;;7.28;100.00
21877;BME280;11103;43.788;23.710;2022-12-18T07:58:28;148208.25;;;7.28;100.00
21877;BME280;11103;43.788;23.710;2022-12-18T08:01:02;148252.91;;;7.45;100.00
21877;BME280;11103;43.788;23.710;2022-12-18T08:03:28;148286.06;;;7.58;100.00
21877;BME280;11103;43.788;23.710;2022-12-18T08:05:58;148292.50;;;7.61;100.00
21877;BME280;11103;43.788;23.710;2022-12-18T08:08:23;148307.78;;;7.67;100.00
21877;BME280;11103;43.788;23.710;2022-12-18T08:10:49;148283.53;;;7.57;97.86
21877;BME280;11103;43.788;23.710;2022-12-18T08:13:14;148255.47;;;7.46;98.75
21877;BME280;11103;43.788;23.710;2022-12-18T08:15:39;148186.56;;;7.19;93.61
21877;BME280;11103;43.788;23.710;2022-12-18T08:18:05;148205.69;;;7.27;95.70
21877;BME280;11103;43.788;23.710;2022-12-18T08:20:30;148198.03;;;7.24;97.19
21877;BME280;11103;43.788;23.710;2022-12-18T08:22:56;148231.19;;;7.37;93.61
21877;BME280;11103;43.788;23.710;2022-12-18T08:25:23;148130.41;;;6.97;93.96
21877;BME280;11103;43.788;23.710;2022-12-18T08:27:48;148157.19;;;7.07;93.81
21877;BME280;11103;43.788;23.710;2022-12-18T08:30:14;148155.91;;;7.07;94.35
21877;BME280;11103;43.788;23.710;2022-12-18T08:32:39;148154.66;;;7.06;94.68
21877;BME280;11103;43.788;23.710;2022-12-18T08:35:05;148194.22;;;7.22;97.82
21877;BME280;11103;43.788;23.710;2022-12-18T08:37:31;148210.78;;;7.29;98.17
21877;BME280;11103;43.788;23.710;2022-12-18T08:39:56;148158.47;;;7.08;98.90
21877;BME280;11103;43.788;23.710;2022-12-18T08:42:21;148164.84;;;7.10;98.72
21877;BME280;11103;43.788;23.710;2022-12-18T08:45:06;148150.81;;;7.05;100.00
21877;BME280;11103;43.788;23.710;2022-12-18T08:47:31;148163.56;;;7.10;100.00
21877;BME280;11103;43.788;23.710;2022-12-18T08:49:57;148164.84;;;7.10;100.00
21877;BME280;11103;43.788;23.710;2022-12-18T08:52:22;148162.28;;;7.09;99.94
21877;BME280;11103;43.788;23.710;2022-12-18T08:54:48;148129.13;;;6.96;100.00
21877;BME280;11103;43.788;23.710;2022-12-18T08:57:13;148145.72;;;7.03;100.00
21877;BME280;11103;43.788;23.710;2022-12-18T08:59:39;148144.44;;;7.02;100.00
21877;BME280;11103;43.788;23.710;2022-12-18T09:02:04;148164.84;;;7.10;100.00
21877;BME280;11103;43.788;23.710;2022-12-18T09:04:29;148162.28;;;7.09;100.00
21877;BME280;11103;43.788;23.710;2022-12-18T09:06:55;148141.88;;;7.01;99.67
21877;BME280;11103;43.788;23.710;2022-12-18T09:09:26;148139.34;;;7.00;99.53
21877;BME280;11103;43.788;23.710;2022-12-18T09:11:52;148117.66;;;6.92;98.02
21877;BME280;11103;43.788;23.710;2022-12-18T09:14:17;148042.41;;;6.62;98.62
21877;BME280;11103;43.788;23.710;2022-12-18T09:16:43;148044.97;;;6.63;99.97
21877;BME280;11103;43.788;23.710;2022-12-18T09:19:09;148060.25;;;6.69;99.95
21877;BME280;11103;43.788;23.710;2022-12-18T09:21:38;148055.16;;;6.67;99.04
21877;BME280;11103;43.788;23.710;2022-12-18T09:24:04;148044.97;;;6.63;100.00
21877;BME280;11103;43.788;23.710;2022-12-18T09:26:30;148039.84;;;6.61;100.00
21877;BME280;11103;43.788;23.710;2022-12-18T09:28:55;148050.06;;;6.65;99.34
21877;BME280;11103;43.788;23.710;2022-12-18T09:31:22;148029.66;;;6.57;98.98
21877;BME280;11103;43.788;23.710;2022-12-18T09:33:48;148074.28;;;6.75;98.95
21877;BME280;11103;43.788;23.710;2022-12-18T09:36:16;148088.31;;;6.80;97.84
21877;BME280;11103;43.788;23.710;2022-12-18T09:38:42;148124.03;;;6.94;96.59
21877;BME280;11103;43.788;23.710;2022-12-18T09:41:27;148145.72;;;7.03;96.61
21877;BME280;11103;43.788;23.710;2022-12-18T09:44:01;148074.28;;;6.75;94.76
21877;BME280;11103;43.788;23.710;2022-12-18T09:46:38;148050.06;;;6.65;95.39
21877;BME280;11103;43.788;23.710;2022-12-18T09:49:14;148052.59;;;6.66;98.11
21877;BME280;11103;43.788;23.710;2022-12-18T09:54:15;148032.19;;;6.58;95.71
21877;BME280;11103;43.788;23.710;2022-12-18T09:56:43;148067.91;;;6.72;93.35
21877;BME280;11103;43.788;23.710;2022-12-18T09:59:33;148067.91;;;6.72;94.16
21877;BME280;11103;43.788;23.710;2022-12-18T10:02:21;148076.84;;;6.76;92.60
21877;BME280;11103;43.788;23.710;2022-12-18T10:05:02;148060.25;;;6.69;95.78
21877;BME280;11103;43.788;23.710;2022-12-18T10:10:29;148153.38;;;7.06;93.93
21877;BME280;11103;43.788;23.710;2022-12-18T10:13:04;148144.44;;;7.02;91.90
21877;BME280;11103;43.788;23.710;2022-12-18T10:15:35;148161.03;;;7.09;90.92
21877;BME280;11103;43.788;23.710;2022-12-18T10:27:59;148141.88;;;7.01;85.62
21877;BME280;11103;43.788;23.710;2022-12-18T10:30:26;148167.41;;;7.11;86.44
21877;BME280;11103;43.788;23.710;2022-12-18T10:32:52;148199.31;;;7.24;87.16
21877;BME280;11103;43.788;23.710;2022-12-18T10:35:21;148218.44;;;7.32;88.47
21877;BME280;11103;43.788;23.710;2022-12-18T10:40:28;148231.19;;;7.37;78.47
21877;BME280;11103;43.788;23.710;2022-12-18T10:43:04;148266.94;;;7.51;77.38
21877;BME280;11103;43.788;23.710;2022-12-18T10:45:30;148259.28;;;7.48;76.54
21877;BME280;11103;43.788;23.710;2022-12-18T10:47:56;148263.13;;;7.49;74.54
21877;BME280;11103;43.788;23.710;2022-12-18T10:50:33;148247.81;;;7.43;75.94
21877;BME280;11103;43.788;23.710;2022-12-18T10:53:00;148328.19;;;7.75;72.51
21877;BME280;11103;43.788;23.710;2022-12-18T10:55:31;148318.00;;;7.71;71.81
21877;BME280;11103;43.788;23.710;2022-12-18T10:58:19;148298.88;;;7.63;73.05
21877;BME280;11103;43.788;23.710;2022-12-18T11:06:17;148222.28;;;7.33;72.78
21877;BME280;11103;43.788;23.710;2022-12-18T11:08:57;148195.50;;;7.23;72.69
21877;BME280;11103;43.788;23.710;2022-12-18T11:11:23;148175.09;;;7.14;72.34
21877;BME280;11103;43.788;23.710;2022-12-18T11:16:44;148129.13;;;6.96;70.70
21877;BME280;11103;43.788;23.710;2022-12-18T11:19:27;148144.44;;;7.02;71.21
21877;BME280;11103;43.788;23.710;2022-12-18T11:21:53;148129.13;;;6.96;72.31
21877;BME280;11103;43.788;23.710;2022-12-18T11:24:26;148136.78;;;6.99;73.16
21877;BME280;11103;43.788;23.710;2022-12-18T11:26:53;148111.28;;;6.89;72.93
21877;BME280;11103;43.788;23.710;2022-12-18T11:29:26;148129.13;;;6.96;72.74
21877;BME280;11103;43.788;23.710;2022-12-18T11:32:34;148136.78;;;6.99;74.85
21877;BME280;11103;43.788;23.710;2022-12-18T11:35:20;148145.72;;;7.03;73.20
21877;BME280;11103;43.788;23.710;2022-12-18T11:37:54;148135.50;;;6.99;75.42
21877;BME280;11103;43.788;23.710;2022-12-18T11:40:35;148136.78;;;6.99;74.46
21877;BME280;11103;43.788;23.710;2022-12-18T11:43:10;148140.63;;;7.01;76.26
21877;BME280;11103;43.788;23.710;2022-12-18T11:45:49;148140.63;;;7.01;75.61
21877;BME280;11103;43.788;23.710;2022-12-18T11:48:29;148138.06;;;7.00;76.15
21877;BME280;11103;43.788;23.710;2022-12-18T11:50:59;148115.09;;;6.91;76.18
21877;BME280;11103;43.788;23.710;2022-12-18T11:53:26;148056.44;;;6.68;75.21
21877;BME280;11103;43.788;23.710;2022-12-18T11:56:06;148066.63;;;6.72;76.07
21877;BME280;11103;43.788;23.710;2022-12-18T11:58:44;148061.53;;;6.70;77.18
21877;BME280;11103;43.788;23.710;2022-12-18T12:07:21;148018.16;;;6.52;79.21
21877;BME280;11103;43.788;23.710;2022-12-18T12:13:21;147978.63;;;6.37;80.51
21877;BME280;11103;43.788;23.710;2022-12-18T12:21:20;147891.97;;;6.03;85.34
21877;BME280;11103;43.788;23.710;2022-12-18T12:30:06;148000.31;;;6.45;88.21
21877;BME280;11103;43.788;23.710;2022-12-18T12:32:46;148037.31;;;6.60;87.21
21877;BME280;11103;43.788;23.710;2022-12-18T12:40:26;148078.13;;;6.76;79.32
21877;BME280;11103;43.788;23.710;2022-12-18T12:42:56;148050.06;;;6.65;77.82
21877;BME280;11103;43.788;23.710;2022-12-18T12:45:46;148011.78;;;6.50;77.00
21877;BME280;11103;43.788;23.710;2022-12-18T12:48:21;147960.81;;;6.30;77.58
21877;BME280;11103;43.788;23.710;2022-12-18T12:50:51;147932.75;;;6.19;78.98
21877;BME280;11103;43.788;23.710;2022-12-18T12:53:27;147914.88;;;6.12;78.88
21877;BME280;11103;43.788;23.710;2022-12-18T12:55:54;147871.56;;;5.94;79.13
21877;BME280;11103;43.788;23.710;2022-12-18T12:58:38;147909.78;;;6.10;80.72
21877;BME280;11103;43.788;23.710;2022-12-18T13:04:15;147951.88;;;6.26;82.92
21877;BME280;11103;43.788;23.710;2022-12-18T13:09:14;148011.78;;;6.50;79.96
21877;BME280;11103;43.788;23.710;2022-12-18T13:11:42;148014.34;;;6.51;81.00
21877;BME280;11103;43.788;23.710;2022-12-18T13:17:26;147987.56;;;6.40;80.70
21877;BME280;11103;43.788;23.710;2022-12-18T13:20:07;148001.59;;;6.46;80.49
21877;BME280;11103;43.788;23.710;2022-12-18T13:22:47;147977.34;;;6.36;80.70
21877;BME280;11103;43.788;23.710;2022-12-18T13:25:35;147978.63;;;6.37;81.81
21877;BME280;11103;43.788;23.710;2022-12-18T13:28:07;147955.66;;;6.28;81.54
21877;BME280;11103;43.788;23.710;2022-12-18T13:46:00;147907.28;;;6.09;86.59
21877;BME280;11103;43.788;23.710;2022-12-18T13:48:28;147911.06;;;6.10;87.50
21877;BME280;11103;43.788;23.710;2022-12-18T13:50:58;147903.41;;;6.07;88.63
21877;BME280;11103;43.788;23.710;2022-12-18T13:53:31;147877.94;;;5.97;90.87
21877;BME280;11103;43.788;23.710;2022-12-18T13:55:58;147820.53;;;5.74;91.26
21877;BME280;11103;43.788;23.710;2022-12-18T13:58:23;147770.81;;;5.55;92.15
21877;BME280;11103;43.788;23.710;2022-12-18T14:00:49;147800.13;;;5.66;93.50
21877;BME280;11103;43.788;23.710;2022-12-18T14:03:21;147761.94;;;5.51;93.93
21877;BME280;11103;43.788;23.710;2022-12-18T14:06:10;147769.59;;;5.54;95.29
21877;BME280;11103;43.788;23.710;2022-12-18T14:08:42;147754.28;;;5.48;96.43
21877;BME280;11103;43.788;23.710;2022-12-18T14:11:20;147728.81;;;5.38;99.06
21877;BME280;11103;43.788;23.710;2022-12-18T14:13:47;147714.81;;;5.32;99.95
21877;BME280;11103;43.788;23.710;2022-12-18T14:16:15;147702.03;;;5.27;100.00
21877;BME280;11103;43.788;23.710;2022-12-18T14:18:54;147690.56;;;5.23;100.00
21877;BME280;11103;43.788;23.710;2022-12-18T14:21:28;147651.13;;;5.07;100.00
21877;BME280;11103;43.788;23.710;2022-12-18T14:26:39;147643.47;;;5.04;100.00
21877;BME280;11103;43.788;23.710;2022-12-18T14:29:21;147660.03;;;5.11;100.00
21877;BME280;11103;43.788;23.710;2022-12-18T14:32:14;147614.16;;;4.93;100.00
21877;BME280;11103;43.788;23.710;2022-12-18T14:34:43;147581.06;;;4.79;100.00
21877;BME280;11103;43.788;23.710;2022-12-18T14:37:15;147601.44;;;4.88;100.00